sensor_id;sensor_type;location;lat;lon;timestamp;temperature;humidity
54006;DHT22;39919;38.160;-122.260;2023-03-03T00:00:58;16.00;49.40
54006;DHT22;39919;38.160;-122.260;2023-03-03T00:03:27;15.90;49.90
54006;DHT22;39919;38.160;-122.260;2023-03-03T00:05:56;15.90;50.70
54006;DHT22;39919;38.160;-122.260;2023-03-03T00:08:26;15.90;51.50
54006;DHT22;39919;38.160;-122.260;2023-03-03T00:10:55;15.90;50.30
54006;DHT22;39919;38.160;-122.260;2023-03-03T00:13:24;15.80;49.70
54006;DHT22;39919;38.160;-122.260;2023-03-03T00:16:09;15.80;49.80
54006;DHT22;39919;38.160;-122.260;2023-03-03T00:18:42;15.80;50.60
54006;DHT22;39919;38.160;-122.260;2023-03-03T00:21:27;15.70;50.90
54006;DHT22;39919;38.160;-122.260;2023-03-03T00:24:16;15.70;50.20
54006;DHT22;39919;38.160;-122.260;2023-03-03T00:26:49;15.70;50.40
54006;DHT22;39919;38.160;-122.260;2023-03-03T00:29:28;15.60;50.80
54006;DHT22;39919;38.160;-122.260;2023-03-03T00:32:20;15.60;50.80
54006;DHT22;39919;38.160;-122.260;2023-03-03T00:34:51;15.50;51.00
54006;DHT22;39919;38.160;-122.260;2023-03-03T00:37:29;15.50;51.30
54006;DHT22;39919;38.160;-122.260;2023-03-03T00:40:17;15.40;51.40
54006;DHT22;39919;38.160;-122.260;2023-03-03T00:42:52;15.40;51.60
54006;DHT22;39919;38.160;-122.260;2023-03-03T00:45:31;15.30;51.70
54006;DHT22;39919;38.160;-122.260;2023-03-03T00:48:22;15.30;51.70
54006;DHT22;39919;38.160;-122.260;2023-03-03T00:50:53;15.30;51.50
54006;DHT22;39919;38.160;-122.260;2023-03-03T00:53:24;15.20;51.40
54006;DHT22;39919;38.160;-122.260;2023-03-03T00:55:53;15.20;51.20
54006;DHT22;39919;38.160;-122.260;2023-03-03T00:58:24;15.10;51.60
54006;DHT22;39919;38.160;-122.260;2023-03-03T01:00:54;15.10;51.10
54006;DHT22;39919;38.160;-122.260;2023-03-03T01:03:26;15.10;50.40
54006;DHT22;39919;38.160;-122.260;2023-03-03T01:05:55;15.00;50.60
54006;DHT22;39919;38.160;-122.260;2023-03-03T01:08:25;15.00;50.90
54006;DHT22;39919;38.160;-122.260;2023-03-03T01:10:55;14.90;50.70
54006;DHT22;39919;38.160;-122.260;2023-03-03T01:13:27;14.90;50.90
54006;DHT22;39919;38.160;-122.260;2023-03-03T01:15:57;14.80;50.90
54006;DHT22;39919;38.160;-122.260;2023-03-03T01:18:28;14.80;49.90
54006;DHT22;39919;38.160;-122.260;2023-03-03T01:23:42;14.70;50.10
54006;DHT22;39919;38.160;-122.260;2023-03-03T01:26:11;14.60;50.90
54006;DHT22;39919;38.160;-122.260;2023-03-03T01:28:40;14.60;52.20
54006;DHT22;39919;38.160;-122.260;2023-03-03T01:31:09;14.50;52.70
54006;DHT22;39919;38.160;-122.260;2023-03-03T01:33:41;14.50;53.40
54006;DHT22;39919;38.160;-122.260;2023-03-03T01:36:10;14.40;54.10
54006;DHT22;39919;38.160;-122.260;2023-03-03T01:38:39;14.40;54.50
54006;DHT22;39919;38.160;-122.260;2023-03-03T01:41:09;14.30;55.20
54006;DHT22;39919;38.160;-122.260;2023-03-03T01:43:43;14.30;55.60
54006;DHT22;39919;38.160;-122.260;2023-03-03T01:46:40;14.20;56.20
54006;DHT22;39919;38.160;-122.260;2023-03-03T01:49:15;14.10;57.10
54006;DHT22;39919;38.160;-122.260;2023-03-03T01:51:49;14.10;57.60
54006;DHT22;39919;38.160;-122.260;2023-03-03T01:54:22;14.00;58.10
54006;DHT22;39919;38.160;-122.260;2023-03-03T01:57:00;13.90;59.00
54006;DHT22;39919;38.160;-122.260;2023-03-03T01:59:35;13.80;60.00
54006;DHT22;39919;38.160;-122.260;2023-03-03T02:02:08;13.80;61.20
54006;DHT22;39919;38.160;-122.260;2023-03-03T02:04:39;13.70;61.40
54006;DHT22;39919;38.160;-122.260;2023-03-03T02:07:09;13.60;61.00
54006;DHT22;39919;38.160;-122.260;2023-03-03T02:09:45;13.60;61.40
54006;DHT22;39919;38.160;-122.260;2023-03-03T02:12:17;13.50;61.80
54006;DHT22;39919;38.160;-122.260;2023-03-03T02:14:46;13.40;62.50
54006;DHT22;39919;38.160;-122.260;2023-03-03T02:17:16;13.30;62.60
54006;DHT22;39919;38.160;-122.260;2023-03-03T02:19:53;13.30;62.70
54006;DHT22;39919;38.160;-122.260;2023-03-03T02:22:33;13.20;62.80
54006;DHT22;39919;38.160;-122.260;2023-03-03T02:25:08;13.20;63.30
54006;DHT22;39919;38.160;-122.260;2023-03-03T02:27:40;13.10;63.80
54006;DHT22;39919;38.160;-122.260;2023-03-03T02:30:14;13.00;64.80
54006;DHT22;39919;38.160;-122.260;2023-03-03T02:32:44;13.00;65.00
54006;DHT22;39919;38.160;-122.260;2023-03-03T02:35:31;12.90;64.80
54006;DHT22;39919;38.160;-122.260;2023-03-03T02:38:11;12.90;65.70
54006;DHT22;39919;38.160;-122.260;2023-03-03T02:40:46;12.80;65.60
54006;DHT22;39919;38.160;-122.260;2023-03-03T02:43:27;12.80;65.70
54006;DHT22;39919;38.160;-122.260;2023-03-03T02:45:58;12.70;65.70
54006;DHT22;39919;38.160;-122.260;2023-03-03T02:48:28;12.60;65.60
54006;DHT22;39919;38.160;-122.260;2023-03-03T02:50:57;12.60;65.90
54006;DHT22;39919;38.160;-122.260;2023-03-03T02:53:26;12.60;66.50
54006;DHT22;39919;38.160;-122.260;2023-03-03T02:55:55;12.50;66.40
54006;DHT22;39919;38.160;-122.260;2023-03-03T02:58:26;12.50;66.50
54006;DHT22;39919;38.160;-122.260;2023-03-03T03:00:55;12.40;66.10
54006;DHT22;39919;38.160;-122.260;2023-03-03T03:03:28;12.40;66.70
54006;DHT22;39919;38.160;-122.260;2023-03-03T03:05:57;12.30;67.60
54006;DHT22;39919;38.160;-122.260;2023-03-03T03:08:26;12.20;67.70
54006;DHT22;39919;38.160;-122.260;2023-03-03T03:10:55;12.20;68.30
54006;DHT22;39919;38.160;-122.260;2023-03-03T03:13:26;12.10;68.70
54006;DHT22;39919;38.160;-122.260;2023-03-03T03:15:56;12.10;69.50
54006;DHT22;39919;38.160;-122.260;2023-03-03T03:18:27;12.00;70.20
54006;DHT22;39919;38.160;-122.260;2023-03-03T03:20:56;11.90;70.80
54006;DHT22;39919;38.160;-122.260;2023-03-03T03:23:26;11.80;70.80
54006;DHT22;39919;38.160;-122.260;2023-03-03T03:25:55;11.80;71.60
54006;DHT22;39919;38.160;-122.260;2023-03-03T03:28:26;11.70;71.80
54006;DHT22;39919;38.160;-122.260;2023-03-03T03:30:55;11.70;72.30
54006;DHT22;39919;38.160;-122.260;2023-03-03T03:33:24;11.60;72.90
54006;DHT22;39919;38.160;-122.260;2023-03-03T03:35:57;11.50;72.90
54006;DHT22;39919;38.160;-122.260;2023-03-03T03:38:27;11.50;73.30
54006;DHT22;39919;38.160;-122.260;2023-03-03T03:40:57;11.40;73.10
54006;DHT22;39919;38.160;-122.260;2023-03-03T03:43:28;11.40;73.60
54006;DHT22;39919;38.160;-122.260;2023-03-03T03:45:58;11.30;73.60
54006;DHT22;39919;38.160;-122.260;2023-03-03T03:48:27;11.20;73.50
54006;DHT22;39919;38.160;-122.260;2023-03-03T03:50:56;11.20;73.80
54006;DHT22;39919;38.160;-122.260;2023-03-03T03:53:25;11.10;74.60
54006;DHT22;39919;38.160;-122.260;2023-03-03T03:55:54;11.10;75.30
54006;DHT22;39919;38.160;-122.260;2023-03-03T03:58:24;11.10;75.40
54006;DHT22;39919;38.160;-122.260;2023-03-03T04:00:54;11.00;75.80
54006;DHT22;39919;38.160;-122.260;2023-03-03T04:03:23;11.00;76.10
54006;DHT22;39919;38.160;-122.260;2023-03-03T04:05:53;10.90;76.60
54006;DHT22;39919;38.160;-122.260;2023-03-03T04:08:22;10.90;76.50
54006;DHT22;39919;38.160;-122.260;2023-03-03T04:10:52;10.90;76.90
54006;DHT22;39919;38.160;-122.260;2023-03-03T04:13:21;10.80;77.50
54006;DHT22;39919;38.160;-122.260;2023-03-03T04:15:50;10.80;77.90
54006;DHT22;39919;38.160;-122.260;2023-03-03T04:18:21;10.80;78.10
54006;DHT22;39919;38.160;-122.260;2023-03-03T04:20:50;10.80;78.20
54006;DHT22;39919;38.160;-122.260;2023-03-03T04:23:20;10.70;78.40
54006;DHT22;39919;38.160;-122.260;2023-03-03T04:25:50;10.70;78.50
54006;DHT22;39919;38.160;-122.260;2023-03-03T04:28:19;10.80;78.90
54006;DHT22;39919;38.160;-122.260;2023-03-03T04:30:51;10.70;79.20
54006;DHT22;39919;38.160;-122.260;2023-03-03T04:33:21;10.70;79.70
54006;DHT22;39919;38.160;-122.260;2023-03-03T04:35:51;10.70;79.90
54006;DHT22;39919;38.160;-122.260;2023-03-03T04:38:20;10.80;80.50
54006;DHT22;39919;38.160;-122.260;2023-03-03T04:40:49;10.70;80.50
54006;DHT22;39919;38.160;-122.260;2023-03-03T04:43:18;10.70;80.70
54006;DHT22;39919;38.160;-122.260;2023-03-03T04:45:47;10.70;80.90
54006;DHT22;39919;38.160;-122.260;2023-03-03T04:48:20;10.70;81.20
54006;DHT22;39919;38.160;-122.260;2023-03-03T04:50:49;10.60;82.10
54006;DHT22;39919;38.160;-122.260;2023-03-03T04:53:18;10.60;82.50
54006;DHT22;39919;38.160;-122.260;2023-03-03T04:55:49;10.60;82.50
54006;DHT22;39919;38.160;-122.260;2023-03-03T04:58:19;10.60;83.00
54006;DHT22;39919;38.160;-122.260;2023-03-03T05:00:53;10.60;83.90
54006;DHT22;39919;38.160;-122.260;2023-03-03T05:03:26;10.60;84.70
54006;DHT22;39919;38.160;-122.260;2023-03-03T05:05:56;10.60;85.20
54006;DHT22;39919;38.160;-122.260;2023-03-03T05:08:28;10.50;85.10
54006;DHT22;39919;38.160;-122.260;2023-03-03T05:10:57;10.50;85.30
54006;DHT22;39919;38.160;-122.260;2023-03-03T05:13:27;10.50;85.10
54006;DHT22;39919;38.160;-122.260;2023-03-03T05:15:57;10.40;85.30
54006;DHT22;39919;38.160;-122.260;2023-03-03T05:18:28;10.40;85.40
54006;DHT22;39919;38.160;-122.260;2023-03-03T05:20:57;10.40;85.50
54006;DHT22;39919;38.160;-122.260;2023-03-03T05:23:26;10.40;85.60
54006;DHT22;39919;38.160;-122.260;2023-03-03T05:25:55;10.30;85.70
54006;DHT22;39919;38.160;-122.260;2023-03-03T05:28:25;10.30;86.10
54006;DHT22;39919;38.160;-122.260;2023-03-03T05:30:54;10.30;86.50
54006;DHT22;39919;38.160;-122.260;2023-03-03T05:33:23;10.20;86.50
54006;DHT22;39919;38.160;-122.260;2023-03-03T05:35:56;10.20;86.20
54006;DHT22;39919;38.160;-122.260;2023-03-03T05:38:25;10.10;85.90
54006;DHT22;39919;38.160;-122.260;2023-03-03T05:40:54;10.10;87.20
54006;DHT22;39919;38.160;-122.260;2023-03-03T05:43:24;10.10;87.40
54006;DHT22;39919;38.160;-122.260;2023-03-03T05:45:55;10.00;87.40
54006;DHT22;39919;38.160;-122.260;2023-03-03T05:48:24;10.00;88.00
54006;DHT22;39919;38.160;-122.260;2023-03-03T05:50:56;10.00;88.60
54006;DHT22;39919;38.160;-122.260;2023-03-03T05:53:25;9.90;88.60
54006;DHT22;39919;38.160;-122.260;2023-03-03T05:55:55;9.90;88.80
54006;DHT22;39919;38.160;-122.260;2023-03-03T05:58:24;9.90;89.10
54006;DHT22;39919;38.160;-122.260;2023-03-03T06:00:53;9.80;89.40
54006;DHT22;39919;38.160;-122.260;2023-03-03T06:03:22;9.80;89.90
54006;DHT22;39919;38.160;-122.260;2023-03-03T06:05:52;9.80;90.40
54006;DHT22;39919;38.160;-122.260;2023-03-03T06:08:23;9.70;90.70
54006;DHT22;39919;38.160;-122.260;2023-03-03T06:10:52;9.70;91.00
54006;DHT22;39919;38.160;-122.260;2023-03-03T06:13:21;9.60;91.20
54006;DHT22;39919;38.160;-122.260;2023-03-03T06:15:50;9.60;91.70
54006;DHT22;39919;38.160;-122.260;2023-03-03T06:18:19;9.60;91.90
54006;DHT22;39919;38.160;-122.260;2023-03-03T06:20:51;9.60;92.40
54006;DHT22;39919;38.160;-122.260;2023-03-03T06:23:22;9.50;92.60
54006;DHT22;39919;38.160;-122.260;2023-03-03T06:25:51;9.50;92.90
54006;DHT22;39919;38.160;-122.260;2023-03-03T06:28:21;9.40;93.10
54006;DHT22;39919;38.160;-122.260;2023-03-03T06:30:53;9.40;93.40
54006;DHT22;39919;38.160;-122.260;2023-03-03T06:33:22;9.40;93.80
54006;DHT22;39919;38.160;-122.260;2023-03-03T06:35:53;9.30;93.70
54006;DHT22;39919;38.160;-122.260;2023-03-03T06:38:25;9.30;94.10
54006;DHT22;39919;38.160;-122.260;2023-03-03T06:40:54;9.30;94.90
54006;DHT22;39919;38.160;-122.260;2023-03-03T06:43:24;9.20;95.30
54006;DHT22;39919;38.160;-122.260;2023-03-03T06:45:53;9.20;95.60
54006;DHT22;39919;38.160;-122.260;2023-03-03T06:48:22;9.20;95.40
54006;DHT22;39919;38.160;-122.260;2023-03-03T06:50:51;9.10;95.40
54006;DHT22;39919;38.160;-122.260;2023-03-03T06:53:20;9.10;95.60
54006;DHT22;39919;38.160;-122.260;2023-03-03T06:55:54;9.10;95.60
54006;DHT22;39919;38.160;-122.260;2023-03-03T06:58:24;9.10;96.20
54006;DHT22;39919;38.160;-122.260;2023-03-03T07:00:57;9.00;96.70
54006;DHT22;39919;38.160;-122.260;2023-03-03T07:03:28;9.00;96.60
54006;DHT22;39919;38.160;-122.260;2023-03-03T07:06:00;9.00;96.00
54006;DHT22;39919;38.160;-122.260;2023-03-03T07:08:30;8.90;96.20
54006;DHT22;39919;38.160;-122.260;2023-03-03T07:11:10;8.90;96.00
54006;DHT22;39919;38.160;-122.260;2023-03-03T07:13:42;8.90;95.50
54006;DHT22;39919;38.160;-122.260;2023-03-03T07:16:13;8.90;95.20
54006;DHT22;39919;38.160;-122.260;2023-03-03T07:18:48;8.80;94.90
54006;DHT22;39919;38.160;-122.260;2023-03-03T07:21:22;8.80;95.10
54006;DHT22;39919;38.160;-122.260;2023-03-03T07:23:53;8.80;95.00
54006;DHT22;39919;38.160;-122.260;2023-03-03T07:26:27;8.70;95.40
54006;DHT22;39919;38.160;-122.260;2023-03-03T07:29:00;8.70;95.00
54006;DHT22;39919;38.160;-122.260;2023-03-03T07:31:35;8.70;94.50
54006;DHT22;39919;38.160;-122.260;2023-03-03T07:34:19;8.60;94.10
54006;DHT22;39919;38.160;-122.260;2023-03-03T07:36:51;8.60;93.90
54006;DHT22;39919;38.160;-122.260;2023-03-03T07:39:30;8.60;94.00
54006;DHT22;39919;38.160;-122.260;2023-03-03T07:42:24;8.50;94.60
54006;DHT22;39919;38.160;-122.260;2023-03-03T07:44:55;8.50;94.80
54006;DHT22;39919;38.160;-122.260;2023-03-03T07:47:26;8.50;94.70
54006;DHT22;39919;38.160;-122.260;2023-03-03T07:49:57;8.40;94.60
54006;DHT22;39919;38.160;-122.260;2023-03-03T07:52:38;8.40;94.60
54006;DHT22;39919;38.160;-122.260;2023-03-03T07:55:28;8.40;94.40
54006;DHT22;39919;38.160;-122.260;2023-03-03T07:58:20;8.30;94.30
54006;DHT22;39919;38.160;-122.260;2023-03-03T08:03:54;8.20;93.70
54006;DHT22;39919;38.160;-122.260;2023-03-03T08:06:47;8.20;93.40
54006;DHT22;39919;38.160;-122.260;2023-03-03T08:09:36;8.20;94.10
54006;DHT22;39919;38.160;-122.260;2023-03-03T08:12:28;8.10;95.10
54006;DHT22;39919;38.160;-122.260;2023-03-03T08:15:19;8.10;95.20
54006;DHT22;39919;38.160;-122.260;2023-03-03T08:17:50;8.00;95.20
54006;DHT22;39919;38.160;-122.260;2023-03-03T08:20:53;8.00;95.10
54006;DHT22;39919;38.160;-122.260;2023-03-03T08:23:22;8.00;94.80
54006;DHT22;39919;38.160;-122.260;2023-03-03T08:25:52;7.90;95.20
54006;DHT22;39919;38.160;-122.260;2023-03-03T08:28:21;7.80;95.40
54006;DHT22;39919;38.160;-122.260;2023-03-03T08:30:52;7.80;95.40
54006;DHT22;39919;38.160;-122.260;2023-03-03T08:33:21;7.80;95.40
54006;DHT22;39919;38.160;-122.260;2023-03-03T08:35:51;7.80;95.30
54006;DHT22;39919;38.160;-122.260;2023-03-03T08:38:21;7.70;95.20
54006;DHT22;39919;38.160;-122.260;2023-03-03T08:40:50;7.70;95.10
54006;DHT22;39919;38.160;-122.260;2023-03-03T08:43:19;7.70;95.80
54006;DHT22;39919;38.160;-122.260;2023-03-03T08:45:52;7.70;96.30
54006;DHT22;39919;38.160;-122.260;2023-03-03T08:48:22;7.60;96.50
54006;DHT22;39919;38.160;-122.260;2023-03-03T08:50:51;7.60;96.20
54006;DHT22;39919;38.160;-122.260;2023-03-03T08:53:21;7.60;96.10
54006;DHT22;39919;38.160;-122.260;2023-03-03T08:55:50;7.50;96.00
54006;DHT22;39919;38.160;-122.260;2023-03-03T08:58:20;7.50;96.80
54006;DHT22;39919;38.160;-122.260;2023-03-03T09:00:51;7.50;96.70
54006;DHT22;39919;38.160;-122.260;2023-03-03T09:03:20;7.40;96.60
54006;DHT22;39919;38.160;-122.260;2023-03-03T09:05:49;7.40;96.70
54006;DHT22;39919;38.160;-122.260;2023-03-03T09:08:18;7.40;97.10
54006;DHT22;39919;38.160;-122.260;2023-03-03T09:10:48;7.30;97.30
54006;DHT22;39919;38.160;-122.260;2023-03-03T09:13:18;7.30;97.10
54006;DHT22;39919;38.160;-122.260;2023-03-03T09:15:47;7.20;97.00
54006;DHT22;39919;38.160;-122.260;2023-03-03T09:18:19;7.20;96.80
54006;DHT22;39919;38.160;-122.260;2023-03-03T09:20:49;7.20;96.70
54006;DHT22;39919;38.160;-122.260;2023-03-03T09:23:37;7.10;96.50
54006;DHT22;39919;38.160;-122.260;2023-03-03T09:26:24;7.10;96.80
54006;DHT22;39919;38.160;-122.260;2023-03-03T09:29:00;7.00;96.60
54006;DHT22;39919;38.160;-122.260;2023-03-03T09:31:38;7.00;96.70
54006;DHT22;39919;38.160;-122.260;2023-03-03T09:34:20;6.90;96.90
54006;DHT22;39919;38.160;-122.260;2023-03-03T09:36:50;6.90;96.70
54006;DHT22;39919;38.160;-122.260;2023-03-03T09:39:22;6.90;96.90
54006;DHT22;39919;38.160;-122.260;2023-03-03T09:45:30;6.80;97.20
54006;DHT22;39919;38.160;-122.260;2023-03-03T09:48:21;6.70;96.90
54006;DHT22;39919;38.160;-122.260;2023-03-03T09:51:01;6.70;96.90
54006;DHT22;39919;38.160;-122.260;2023-03-03T09:53:45;6.60;97.10
54006;DHT22;39919;38.160;-122.260;2023-03-03T09:56:22;6.60;97.00
54006;DHT22;39919;38.160;-122.260;2023-03-03T09:59:12;6.50;97.10
54006;DHT22;39919;38.160;-122.260;2023-03-03T10:01:54;6.50;97.70
54006;DHT22;39919;38.160;-122.260;2023-03-03T10:07:46;6.40;97.50
54006;DHT22;39919;38.160;-122.260;2023-03-03T10:10:42;6.30;97.60
54006;DHT22;39919;38.160;-122.260;2023-03-03T10:13:22;6.30;97.70
54006;DHT22;39919;38.160;-122.260;2023-03-03T10:16:19;6.30;97.30
54006;DHT22;39919;38.160;-122.260;2023-03-03T10:18:56;6.20;97.10
54006;DHT22;39919;38.160;-122.260;2023-03-03T10:21:30;6.20;97.30
54006;DHT22;39919;38.160;-122.260;2023-03-03T10:24:17;6.10;97.60
54006;DHT22;39919;38.160;-122.260;2023-03-03T10:27:02;6.20;99.90
54006;DHT22;39919;38.160;-122.260;2023-03-03T10:29:40;6.10;99.90
54006;DHT22;39919;38.160;-122.260;2023-03-03T10:32:33;6.10;99.90
54006;DHT22;39919;38.160;-122.260;2023-03-03T10:35:23;6.00;99.90
54006;DHT22;39919;38.160;-122.260;2023-03-03T10:38:05;6.00;99.90
54006;DHT22;39919;38.160;-122.260;2023-03-03T10:40:46;6.00;99.90
54006;DHT22;39919;38.160;-122.260;2023-03-03T10:43:43;6.00;99.90
54006;DHT22;39919;38.160;-122.260;2023-03-03T10:46:34;5.90;99.90
54006;DHT22;39919;38.160;-122.260;2023-03-03T10:49:26;5.80;99.90
54006;DHT22;39919;38.160;-122.260;2023-03-03T10:52:22;5.80;99.90
54006;DHT22;39919;38.160;-122.260;2023-03-03T10:58:00;5.80;99.90
54006;DHT22;39919;38.160;-122.260;2023-03-03T11:00:34;5.70;98.90
54006;DHT22;39919;38.160;-122.260;2023-03-03T11:03:34;5.70;98.80
54006;DHT22;39919;38.160;-122.260;2023-03-03T11:06:12;5.60;98.60
54006;DHT22;39919;38.160;-122.260;2023-03-03T11:08:45;5.60;99.70
54006;DHT22;39919;38.160;-122.260;2023-03-03T11:11:22;5.70;99.90
54006;DHT22;39919;38.160;-122.260;2023-03-03T11:14:02;5.60;99.90
54006;DHT22;39919;38.160;-122.260;2023-03-03T11:16:49;5.60;99.90
54006;DHT22;39919;38.160;-122.260;2023-03-03T11:19:44;5.50;99.90
54006;DHT22;39919;38.160;-122.260;2023-03-03T11:22:33;5.40;99.90
54006;DHT22;39919;38.160;-122.260;2023-03-03T11:25:24;5.50;99.90
54006;DHT22;39919;38.160;-122.260;2023-03-03T11:28:13;5.40;99.90
54006;DHT22;39919;38.160;-122.260;2023-03-03T11:30:59;5.30;99.90
54006;DHT22;39919;38.160;-122.260;2023-03-03T11:33:35;5.40;99.90
54006;DHT22;39919;38.160;-122.260;2023-03-03T11:36:08;5.40;99.90
54006;DHT22;39919;38.160;-122.260;2023-03-03T11:38:52;5.40;99.90
54006;DHT22;39919;38.160;-122.260;2023-03-03T11:41:31;5.30;99.90
54006;DHT22;39919;38.160;-122.260;2023-03-03T11:44:18;5.20;99.90
54006;DHT22;39919;38.160;-122.260;2023-03-03T11:46:54;5.30;99.90
54006;DHT22;39919;38.160;-122.260;2023-03-03T11:49:30;5.30;99.90
54006;DHT22;39919;38.160;-122.260;2023-03-03T11:52:11;5.20;99.90
54006;DHT22;39919;38.160;-122.260;2023-03-03T11:54:47;5.10;99.90
54006;DHT22;39919;38.160;-122.260;2023-03-03T11:57:21;5.10;99.90
54006;DHT22;39919;38.160;-122.260;2023-03-03T12:00:02;5.20;99.90
54006;DHT22;39919;38.160;-122.260;2023-03-03T12:05:42;5.10;99.90
54006;DHT22;39919;38.160;-122.260;2023-03-03T12:08:29;5.10;99.90
54006;DHT22;39919;38.160;-122.260;2023-03-03T12:11:08;5.00;99.90
54006;DHT22;39919;38.160;-122.260;2023-03-03T12:13:55;5.00;99.90
54006;DHT22;39919;38.160;-122.260;2023-03-03T12:16:41;5.00;99.90
54006;DHT22;39919;38.160;-122.260;2023-03-03T12:19:35;5.00;99.90
54006;DHT22;39919;38.160;-122.260;2023-03-03T12:22:31;4.80;99.90
54006;DHT22;39919;38.160;-122.260;2023-03-03T12:25:22;4.90;99.90
54006;DHT22;39919;38.160;-122.260;2023-03-03T12:36:29;4.60;99.90
54006;DHT22;39919;38.160;-122.260;2023-03-03T12:39:04;4.60;99.90
54006;DHT22;39919;38.160;-122.260;2023-03-03T12:41:39;4.50;99.90
54006;DHT22;39919;38.160;-122.260;2023-03-03T12:44:17;4.50;99.90
54006;DHT22;39919;38.160;-122.260;2023-03-03T12:46:55;4.50;99.90
54006;DHT22;39919;38.160;-122.260;2023-03-03T12:49:40;4.50;99.90
54006;DHT22;39919;38.160;-122.260;2023-03-03T12:52:25;4.40;99.90
54006;DHT22;39919;38.160;-122.260;2023-03-03T12:55:08;4.40;99.90
54006;DHT22;39919;38.160;-122.260;2023-03-03T12:57:44;4.40;99.90
54006;DHT22;39919;38.160;-122.260;2023-03-03T13:00:27;4.40;99.90
54006;DHT22;39919;38.160;-122.260;2023-03-03T13:03:05;4.30;99.90
54006;DHT22;39919;38.160;-122.260;2023-03-03T13:05:47;4.30;99.90
54006;DHT22;39919;38.160;-122.260;2023-03-03T13:08:32;4.30;99.90
54006;DHT22;39919;38.160;-122.260;2023-03-03T13:11:20;4.30;99.90
54006;DHT22;39919;38.160;-122.260;2023-03-03T13:13:59;4.30;99.90
54006;DHT22;39919;38.160;-122.260;2023-03-03T13:16:35;4.30;99.90
54006;DHT22;39919;38.160;-122.260;2023-03-03T13:19:08;4.20;99.90
54006;DHT22;39919;38.160;-122.260;2023-03-03T13:21:41;4.20;99.90
54006;DHT22;39919;38.160;-122.260;2023-03-03T13:24:18;4.20;99.90
54006;DHT22;39919;38.160;-122.260;2023-03-03T13:26:54;4.20;99.90
54006;DHT22;39919;38.160;-122.260;2023-03-03T13:29:28;4.20;99.90
54006;DHT22;39919;38.160;-122.260;2023-03-03T13:32:02;4.20;99.90
54006;DHT22;39919;38.160;-122.260;2023-03-03T13:34:41;4.10;99.90
54006;DHT22;39919;38.160;-122.260;2023-03-03T13:37:19;4.10;99.90
54006;DHT22;39919;38.160;-122.260;2023-03-03T13:39:56;4.10;99.90
54006;DHT22;39919;38.160;-122.260;2023-03-03T13:42:36;4.10;99.90
54006;DHT22;39919;38.160;-122.260;2023-03-03T13:45:15;4.10;99.90
54006;DHT22;39919;38.160;-122.260;2023-03-03T13:47:52;4.10;99.90
54006;DHT22;39919;38.160;-122.260;2023-03-03T13:50:28;4.10;99.90
54006;DHT22;39919;38.160;-122.260;2023-03-03T13:53:14;4.10;99.90
54006;DHT22;39919;38.160;-122.260;2023-03-03T13:55:54;4.10;99.90
54006;DHT22;39919;38.160;-122.260;2023-03-03T13:58:30;4.10;99.90
54006;DHT22;39919;38.160;-122.260;2023-03-03T14:01:07;4.10;99.90
54006;DHT22;39919;38.160;-122.260;2023-03-03T14:03:52;4.00;99.90
54006;DHT22;39919;38.160;-122.260;2023-03-03T14:06:23;4.00;99.90
54006;DHT22;39919;38.160;-122.260;2023-03-03T14:09:11;4.00;99.90
54006;DHT22;39919;38.160;-122.260;2023-03-03T14:11:45;4.00;99.90
54006;DHT22;39919;38.160;-122.260;2023-03-03T14:14:27;4.00;99.90
54006;DHT22;39919;38.160;-122.260;2023-03-03T14:17:07;4.00;99.90
54006;DHT22;39919;38.160;-122.260;2023-03-03T14:19:41;3.90;99.90
54006;DHT22;39919;38.160;-122.260;2023-03-03T14:22:17;3.90;99.90
54006;DHT22;39919;38.160;-122.260;2023-03-03T14:25:03;3.90;99.90
54006;DHT22;39919;38.160;-122.260;2023-03-03T14:27:40;3.90;99.90
54006;DHT22;39919;38.160;-122.260;2023-03-03T14:30:28;3.80;99.90
54006;DHT22;39919;38.160;-122.260;2023-03-03T14:33:04;3.80;99.90
54006;DHT22;39919;38.160;-122.260;2023-03-03T14:35:43;3.80;99.90
54006;DHT22;39919;38.160;-122.260;2023-03-03T14:38:18;3.80;99.90
54006;DHT22;39919;38.160;-122.260;2023-03-03T14:40:48;3.70;99.90
54006;DHT22;39919;38.160;-122.260;2023-03-03T14:43:37;3.70;99.90
54006;DHT22;39919;38.160;-122.260;2023-03-03T14:49:27;3.70;99.90
54006;DHT22;39919;38.160;-122.260;2023-03-03T14:52:02;3.70;99.90
54006;DHT22;39919;38.160;-122.260;2023-03-03T14:54:37;3.80;99.90
54006;DHT22;39919;38.160;-122.260;2023-03-03T14:57:12;3.80;99.90
54006;DHT22;39919;38.160;-122.260;2023-03-03T14:59:55;3.90;99.90
54006;DHT22;39919;38.160;-122.260;2023-03-03T15:02:35;4.00;99.90
54006;DHT22;39919;38.160;-122.260;2023-03-03T15:05:19;4.00;99.90
54006;DHT22;39919;38.160;-122.260;2023-03-03T15:07:50;4.10;99.90
54006;DHT22;39919;38.160;-122.260;2023-03-03T15:10:29;4.20;99.90
54006;DHT22;39919;38.160;-122.260;2023-03-03T15:13:12;4.30;99.90
54006;DHT22;39919;38.160;-122.260;2023-03-03T15:16:04;4.40;99.90
54006;DHT22;39919;38.160;-122.260;2023-03-03T15:18:34;4.50;99.90
54006;DHT22;39919;38.160;-122.260;2023-03-03T15:21:21;4.60;99.90
54006;DHT22;39919;38.160;-122.260;2023-03-03T15:23:56;4.80;99.90
54006;DHT22;39919;38.160;-122.260;2023-03-03T15:26:32;4.80;99.90
54006;DHT22;39919;38.160;-122.260;2023-03-03T15:29:07;4.90;99.90
54006;DHT22;39919;38.160;-122.260;2023-03-03T15:31:46;5.00;99.90
54006;DHT22;39919;38.160;-122.260;2023-03-03T15:34:29;5.10;99.90
54006;DHT22;39919;38.160;-122.260;2023-03-03T15:39:57;5.40;99.90
54006;DHT22;39919;38.160;-122.260;2023-03-03T15:42:32;5.50;99.90
54006;DHT22;39919;38.160;-122.260;2023-03-03T15:45:13;5.70;99.90
54006;DHT22;39919;38.160;-122.260;2023-03-03T15:47:48;5.80;99.90
54006;DHT22;39919;38.160;-122.260;2023-03-03T15:50:29;6.00;99.90
54006;DHT22;39919;38.160;-122.260;2023-03-03T15:53:10;6.10;99.90
54006;DHT22;39919;38.160;-122.260;2023-03-03T15:55:55;6.30;99.90
54006;DHT22;39919;38.160;-122.260;2023-03-03T15:59:05;6.50;99.90
54006;DHT22;39919;38.160;-122.260;2023-03-03T16:01:38;6.80;99.90
54006;DHT22;39919;38.160;-122.260;2023-03-03T16:04:14;7.00;99.90
54006;DHT22;39919;38.160;-122.260;2023-03-03T16:06:52;7.20;99.90
54006;DHT22;39919;38.160;-122.260;2023-03-03T16:09:33;7.40;99.90
54006;DHT22;39919;38.160;-122.260;2023-03-03T16:12:12;7.70;99.90
54006;DHT22;39919;38.160;-122.260;2023-03-03T16:15:05;8.00;99.90
54006;DHT22;39919;38.160;-122.260;2023-03-03T16:17:46;8.20;99.90
54006;DHT22;39919;38.160;-122.260;2023-03-03T16:20:27;8.60;99.90
54006;DHT22;39919;38.160;-122.260;2023-03-03T16:23:18;9.30;99.90